createdAt,value
2023-01-19T00:01:41.072Z,0.43
2023-01-19T00:05:08.669Z,0.42
2023-01-19T00:08:36.305Z,0.40
2023-01-19T00:12:03.350Z,0.39
2023-01-19T00:15:30.310Z,0.36
2023-01-19T00:18:57.654Z,0.35
2023-01-19T00:22:24.632Z,0.34
2023-01-19T00:25:51.795Z,0.34
2023-01-19T00:29:20.359Z,0.34
2023-01-19T00:32:47.569Z,0.34
2023-01-19T00:36:14.711Z,0.33
2023-01-19T00:39:41.967Z,0.33
2023-01-19T00:43:09.006Z,0.33
2023-01-19T00:46:36.059Z,0.32
2023-01-19T00:50:03.226Z,0.34
2023-01-19T00:53:32.658Z,0.36
2023-01-19T00:56:58.039Z,0.36
2023-01-19T01:00:26.281Z,0.35
2023-01-19T01:03:54.268Z,0.35
2023-01-19T01:07:21.421Z,0.33
2023-01-19T01:10:48.497Z,0.29
2023-01-19T01:14:16.060Z,0.26
2023-01-19T01:17:48.251Z,0.25
2023-01-19T01:21:15.532Z,0.23
2023-01-19T01:24:42.611Z,0.23
2023-01-19T01:28:11.118Z,0.22
2023-01-19T01:31:38.606Z,0.22
2023-01-19T01:35:06.140Z,0.22
2023-01-19T01:38:33.180Z,0.23
2023-01-19T01:42:00.093Z,0.23
2023-01-19T01:45:35.066Z,0.23
2023-01-19T01:49:05.747Z,0.26
2023-01-19T01:52:37.951Z,0.28
2023-01-19T01:56:08.628Z,0.30
2023-01-19T01:59:39.425Z,0.33
2023-01-19T02:03:06.956Z,0.37
2023-01-19T02:06:34.957Z,0.39
2023-01-19T02:10:20.112Z,0.40
2023-01-19T02:13:48.358Z,0.41
2023-01-19T02:17:15.777Z,0.43
2023-01-19T02:20:46.545Z,0.44
2023-01-19T02:24:14.547Z,0.47
2023-01-19T02:27:41.557Z,0.50
2023-01-19T02:31:08.655Z,0.53
2023-01-19T02:34:36.238Z,0.53
2023-01-19T02:38:05.022Z,0.53
2023-01-19T02:41:39.450Z,0.55
2023-01-19T02:45:09.609Z,0.58
2023-01-19T02:48:36.952Z,0.60
2023-01-19T02:52:04.388Z,0.63
2023-01-19T02:55:33.893Z,0.65
2023-01-19T02:59:07.304Z,0.66
2023-01-19T03:02:46.307Z,0.66
2023-01-19T03:06:25.404Z,0.66
2023-01-19T03:10:00.200Z,0.66
2023-01-19T03:13:35.212Z,0.67
2023-01-19T03:17:07.047Z,0.68
2023-01-19T03:20:35.048Z,0.70
2023-01-19T03:24:08.008Z,0.71
2023-01-19T03:27:40.952Z,0.72
2023-01-19T03:31:13.851Z,0.73
2023-01-19T03:34:43.258Z,0.74
2023-01-19T03:38:15.955Z,0.75
2023-01-19T03:41:44.713Z,0.75
2023-01-19T03:45:13.596Z,0.73
2023-01-19T03:48:42.329Z,0.74
2023-01-19T03:52:09.701Z,0.74
2023-01-19T03:55:38.258Z,0.75
2023-01-19T03:59:06.252Z,0.75
2023-01-19T04:02:33.662Z,0.77
2023-01-19T04:06:00.739Z,0.77
2023-01-19T04:09:27.883Z,0.77
2023-01-19T04:13:00.830Z,0.76
2023-01-19T04:16:29.070Z,0.75
2023-01-19T04:19:55.999Z,0.72
2023-01-19T04:23:22.934Z,0.70
2023-01-19T04:26:51.939Z,0.70
2023-01-19T04:30:19.719Z,0.69
2023-01-19T04:33:46.609Z,0.67
2023-01-19T04:37:14.227Z,0.65
2023-01-19T04:40:41.151Z,0.65
2023-01-19T04:44:08.417Z,0.64
2023-01-19T04:47:35.331Z,0.65
2023-01-19T04:51:02.324Z,0.65
2023-01-19T04:54:29.296Z,0.65
2023-01-19T04:57:56.258Z,0.65
2023-01-19T05:01:23.596Z,0.66
2023-01-19T05:04:51.168Z,0.68
2023-01-19T05:08:18.116Z,0.68
2023-01-19T05:11:45.470Z,0.69
2023-01-19T05:15:14.153Z,0.69
2023-01-19T05:18:41.932Z,0.70
2023-01-19T05:22:09.628Z,0.71
2023-01-19T05:25:38.232Z,0.73
2023-01-19T05:29:05.602Z,0.75
2023-01-19T05:32:32.618Z,0.75
2023-01-19T05:35:59.578Z,0.74
2023-01-19T05:39:26.853Z,0.74
2023-01-19T05:42:54.007Z,0.73
2023-01-19T05:46:21.055Z,0.71
2023-01-19T05:49:47.997Z,0.72
2023-01-19T05:53:15.049Z,0.75
2023-01-19T05:56:42.093Z,0.76
2023-01-19T06:00:11.607Z,0.77
2023-01-19T06:03:41.098Z,0.78
2023-01-19T06:07:09.228Z,0.79
2023-01-19T06:10:36.472Z,0.79
2023-01-19T06:14:03.441Z,0.80
2023-01-19T06:17:30.517Z,0.80
2023-01-19T06:20:59.640Z,0.80
2023-01-19T06:24:26.567Z,0.80
2023-01-19T06:27:53.563Z,0.81
2023-01-19T06:31:20.563Z,0.80
2023-01-19T06:34:47.718Z,0.80
2023-01-19T06:38:15.598Z,0.81
2023-01-19T06:41:43.159Z,0.81
2023-01-19T06:45:12.560Z,0.81
2023-01-19T06:48:39.538Z,0.82
2023-01-19T06:52:06.757Z,0.84
2023-01-19T06:55:35.739Z,0.87
2023-01-19T06:59:03.295Z,0.91
2023-01-19T07:02:30.481Z,0.93
2023-01-19T07:05:58.302Z,0.95
2023-01-19T07:09:25.902Z,0.96
2023-01-19T07:12:53.418Z,0.97
2023-01-19T07:16:20.883Z,1.00
2023-01-19T07:19:48.854Z,1.03
2023-01-19T07:23:16.345Z,1.02
2023-01-19T07:26:43.523Z,1.01
2023-01-19T07:30:12.556Z,1.01
2023-01-19T07:33:39.495Z,1.00
2023-01-19T07:37:06.428Z,1.01
2023-01-19T07:40:33.898Z,1.00
2023-01-19T07:44:00.836Z,1.01
2023-01-19T07:47:27.911Z,1.03
2023-01-19T07:50:54.827Z,1.04
2023-01-19T07:54:21.907Z,1.05
2023-01-19T07:57:52.011Z,1.05
2023-01-19T08:01:19.369Z,1.07
2023-01-19T08:04:49.064Z,1.07
2023-01-19T08:08:16.090Z,1.07
2023-01-19T08:11:42.999Z,1.07
2023-01-19T08:15:11.818Z,1.08
2023-01-19T08:18:38.863Z,1.08
2023-01-19T08:22:05.963Z,1.09
2023-01-19T08:25:37.879Z,1.09
2023-01-19T08:29:06.849Z,1.08
2023-01-19T08:32:33.802Z,1.07
2023-01-19T08:36:00.936Z,1.09
2023-01-19T08:39:28.474Z,1.12
2023-01-19T08:43:00.960Z,1.17
2023-01-19T08:46:28.347Z,1.25
2023-01-19T08:49:55.273Z,1.34
2023-01-19T08:53:23.875Z,1.42
2023-01-19T08:56:51.004Z,1.50
2023-01-19T09:00:19.885Z,1.55
2023-01-19T09:03:47.001Z,1.57
2023-01-19T09:07:14.174Z,1.59
2023-01-19T09:10:45.806Z,1.60
2023-01-19T09:14:13.004Z,1.60
2023-01-19T09:17:40.408Z,1.62
2023-01-19T09:21:08.455Z,1.62
2023-01-19T09:24:36.857Z,1.63
2023-01-19T09:28:04.120Z,1.64
2023-01-19T09:31:31.316Z,1.67
2023-01-19T09:34:58.429Z,1.72
2023-01-19T09:38:25.961Z,1.78
2023-01-19T09:42:03.634Z,1.87
2023-01-19T09:45:39.470Z,1.93
2023-01-19T09:49:13.943Z,1.98
2023-01-19T09:52:49.421Z,2.00
2023-01-19T09:56:19.375Z,2.06
2023-01-19T09:59:51.056Z,2.08
2023-01-19T10:03:20.875Z,2.03
2023-01-19T10:06:48.726Z,1.98
2023-01-19T10:10:23.534Z,1.97
2023-01-19T10:13:54.215Z,1.98
2023-01-19T10:17:32.285Z,1.98
2023-01-19T10:21:05.653Z,1.99
2023-01-19T10:24:39.664Z,1.99
2023-01-19T10:28:06.907Z,2.02
2023-01-19T10:31:37.356Z,2.01
2023-01-19T10:35:21.715Z,2.00
2023-01-19T10:38:49.881Z,2.02
2023-01-19T10:42:18.867Z,2.03
2023-01-19T10:45:52.319Z,2.07
2023-01-19T10:49:31.400Z,2.07
2023-01-19T10:53:01.257Z,2.05
2023-01-19T10:56:31.941Z,2.03
2023-01-19T10:59:59.749Z,2.02
2023-01-19T11:03:29.623Z,1.97
2023-01-19T11:07:14.631Z,1.96
2023-01-19T11:10:41.781Z,1.93
2023-01-19T11:14:14.984Z,1.84
2023-01-19T11:17:48.446Z,1.79
2023-01-19T11:21:17.957Z,1.77
2023-01-19T11:24:46.125Z,1.71
2023-01-19T11:28:21.736Z,1.62
2023-01-19T11:31:49.421Z,1.56
2023-01-19T11:35:37.846Z,1.60
2023-01-19T11:39:24.807Z,1.70
2023-01-19T11:42:52.156Z,1.78
2023-01-19T11:46:20.277Z,1.88
2023-01-19T11:49:52.405Z,1.99
2023-01-19T11:53:24.427Z,2.10
2023-01-19T11:56:53.243Z,2.18
2023-01-19T12:00:29.056Z,2.27
2023-01-19T12:04:02.808Z,2.30
2023-01-19T12:07:44.778Z,2.27
2023-01-19T12:11:30.120Z,2.29
2023-01-19T12:15:03.272Z,2.37
2023-01-19T12:18:35.099Z,2.40
2023-01-19T12:22:03.180Z,2.36
2023-01-19T12:25:37.589Z,2.28
2023-01-19T12:29:12.777Z,2.24
2023-01-19T12:32:39.802Z,2.24
2023-01-19T12:36:11.194Z,2.25
2023-01-19T12:39:50.618Z,2.19
2023-01-19T12:43:17.913Z,2.09
2023-01-19T12:46:47.087Z,1.97
2023-01-19T12:50:23.304Z,1.88
2023-01-19T12:53:56.113Z,1.80
2023-01-19T12:57:28.159Z,1.74
2023-01-19T13:01:16.191Z,1.67
2023-01-19T13:05:03.531Z,1.60
2023-01-19T13:09:01.994Z,1.58
2023-01-19T13:12:29.509Z,1.59
2023-01-19T13:15:58.300Z,1.61
2023-01-19T13:19:36.197Z,1.66
2023-01-19T13:23:24.646Z,1.72
2023-01-19T13:27:03.293Z,1.76
2023-01-19T13:30:35.489Z,1.79
2023-01-19T13:34:05.512Z,1.78
2023-01-19T13:37:39.203Z,1.77
2023-01-19T13:41:07.011Z,1.76
2023-01-19T13:44:39.577Z,1.72
2023-01-19T13:48:09.784Z,1.65
2023-01-19T13:51:36.872Z,1.56
2023-01-19T13:55:05.546Z,1.48
2023-01-19T13:58:33.154Z,1.39
2023-01-19T14:02:14.609Z,1.28
2023-01-19T14:05:44.037Z,1.16
2023-01-19T14:09:20.482Z,1.04
2023-01-19T14:12:59.090Z,0.90
2023-01-19T14:16:26.985Z,0.77
2023-01-19T14:19:55.557Z,0.65
2023-01-19T14:23:40.792Z,0.55
2023-01-19T14:27:19.262Z,0.43
2023-01-19T14:30:57.941Z,0.32
2023-01-19T14:34:37.082Z,0.22
2023-01-19T14:38:04.866Z,0.11
2023-01-19T14:41:39.066Z,-0.00
2023-01-19T14:45:17.388Z,-0.12
2023-01-19T14:48:51.881Z,-0.22
2023-01-19T14:52:27.840Z,-0.33
2023-01-19T14:55:59.192Z,-0.44
2023-01-19T14:59:26.397Z,-0.57
2023-01-19T15:02:53.352Z,-0.69
2023-01-19T15:06:23.162Z,-0.81
2023-01-19T15:09:51.304Z,-0.93
2023-01-19T15:13:21.908Z,-1.04
2023-01-19T15:16:50.426Z,-1.14
2023-01-19T15:20:22.465Z,-1.25
2023-01-19T15:23:49.529Z,-1.32
2023-01-19T15:27:16.819Z,-1.38
2023-01-19T15:30:43.823Z,-1.44
2023-01-19T15:34:14.685Z,-1.51
2023-01-19T15:37:41.902Z,-1.58
2023-01-19T15:41:14.435Z,-1.67
2023-01-19T15:44:41.474Z,-1.73
2023-01-19T15:48:10.539Z,-1.80
2023-01-19T15:51:38.863Z,-1.87
2023-01-19T15:55:07.035Z,-1.94
2023-01-19T15:58:34.291Z,-1.99
2023-01-19T16:02:01.441Z,-2.03
2023-01-19T16:05:42.019Z,-2.11
2023-01-19T16:09:12.244Z,-2.18
2023-01-19T16:12:37.953Z,-2.21
2023-01-19T16:16:13.760Z,-2.25
2023-01-19T16:19:40.951Z,-2.34
2023-01-19T16:23:15.982Z,-2.41
2023-01-19T16:26:43.260Z,-2.45
2023-01-19T16:30:14.839Z,-2.48
2023-01-19T16:33:41.945Z,-2.53
2023-01-19T16:37:08.930Z,-2.57
2023-01-19T16:40:36.106Z,-2.61
2023-01-19T16:44:03.454Z,-2.64
2023-01-19T16:47:31.103Z,-2.66
2023-01-19T16:51:06.984Z,-2.69
2023-01-19T16:54:34.637Z,-2.71
2023-01-19T16:58:01.848Z,-2.73
2023-01-19T17:01:30.542Z,-2.74
2023-01-19T17:05:00.184Z,-2.73
2023-01-19T17:08:27.631Z,-2.75
2023-01-19T17:11:58.216Z,-2.77
2023-01-19T17:15:25.677Z,-2.80
2023-01-19T17:18:53.929Z,-2.86
2023-01-19T17:22:21.492Z,-2.90
2023-01-19T17:25:55.398Z,-2.95
2023-01-19T17:29:22.613Z,-2.98
2023-01-19T17:32:50.230Z,-3.01
2023-01-19T17:36:21.150Z,-2.99
2023-01-19T17:39:48.593Z,-2.98
2023-01-19T17:43:15.691Z,-2.96
2023-01-19T17:46:42.836Z,-2.97
2023-01-19T17:50:11.630Z,-2.98
2023-01-19T17:53:41.389Z,-3.01
2023-01-19T17:57:08.349Z,-3.03
2023-01-19T18:00:35.509Z,-3.06
2023-01-19T18:04:02.657Z,-3.08
2023-01-19T18:07:30.083Z,-3.10
2023-01-19T18:10:58.234Z,-3.10
2023-01-19T18:14:25.158Z,-3.11
2023-01-19T18:17:52.273Z,-3.10
2023-01-19T18:21:21.777Z,-3.09
2023-01-19T18:24:49.229Z,-3.09
2023-01-19T18:28:16.394Z,-3.09
2023-01-19T18:31:43.861Z,-3.08
2023-01-19T18:35:12.005Z,-3.06
2023-01-19T18:38:39.440Z,-3.03
2023-01-19T18:42:06.659Z,-3.00
2023-01-19T18:45:33.878Z,-3.02
2023-01-19T18:49:01.036Z,-3.05
2023-01-19T18:52:28.074Z,-3.06
2023-01-19T18:55:57.538Z,-3.05
2023-01-19T18:59:23.364Z,-3.05
2023-01-19T19:02:50.688Z,-3.04
2023-01-19T19:06:20.834Z,-3.04
2023-01-19T19:09:48.609Z,-3.02
2023-01-19T19:13:17.269Z,-3.01
2023-01-19T19:16:44.876Z,-3.00
2023-01-19T19:20:14.590Z,-3.00
2023-01-19T19:23:42.370Z,-3.00
2023-01-19T19:27:13.949Z,-3.02
2023-01-19T19:30:41.504Z,-3.04
2023-01-19T19:34:09.445Z,-3.06
2023-01-19T19:37:37.295Z,-3.08
2023-01-19T19:41:09.269Z,-3.11
2023-01-19T19:44:36.384Z,-3.14
2023-01-19T19:48:04.246Z,-3.18
2023-01-19T19:51:31.974Z,-3.21
2023-01-19T19:55:00.039Z,-3.23
2023-01-19T19:58:30.624Z,-3.22
2023-01-19T20:01:59.895Z,-3.23
2023-01-19T20:05:26.511Z,-3.26
2023-01-19T20:08:56.940Z,-3.29
2023-01-19T20:12:25.392Z,-3.32
2023-01-19T20:15:54.338Z,-3.33
2023-01-19T20:19:22.028Z,-3.32
2023-01-19T20:22:50.053Z,-3.31
2023-01-19T20:26:20.156Z,-3.32
2023-01-19T20:29:51.923Z,-3.34
2023-01-19T20:33:19.587Z,-3.33
2023-01-19T20:36:49.915Z,-3.33
2023-01-19T20:40:18.269Z,-3.32
2023-01-19T20:43:46.109Z,-3.34
2023-01-19T20:47:13.723Z,-3.36
2023-01-19T20:50:40.792Z,-3.37
2023-01-19T20:54:08.113Z,-3.38
2023-01-19T20:57:35.719Z,-3.41
2023-01-19T21:01:10.129Z,-3.42
2023-01-19T21:04:37.911Z,-3.43
2023-01-19T21:08:06.965Z,-3.42
2023-01-19T21:11:33.247Z,-3.43
2023-01-19T21:15:01.063Z,-3.43
2023-01-19T21:18:29.514Z,-3.41
2023-01-19T21:21:57.641Z,-3.38
2023-01-19T21:25:25.515Z,-3.32
2023-01-19T21:28:53.003Z,-3.28
2023-01-19T21:32:21.402Z,-3.25
2023-01-19T21:35:55.737Z,-3.23
2023-01-19T21:39:23.620Z,-3.24
2023-01-19T21:42:51.151Z,-3.23
2023-01-19T21:46:21.827Z,-3.21
2023-01-19T21:49:49.156Z,-3.19
2023-01-19T21:53:16.239Z,-3.17
2023-01-19T21:56:44.322Z,-3.16
2023-01-19T22:00:13.406Z,-3.16
2023-01-19T22:03:40.925Z,-3.16
2023-01-19T22:07:08.023Z,-3.14
2023-01-19T22:10:38.837Z,-3.14
2023-01-19T22:14:06.079Z,-3.13
2023-01-19T22:17:33.285Z,-3.13
2023-01-19T22:21:10.219Z,-3.14
2023-01-19T22:24:37.252Z,-3.13
2023-01-19T22:28:04.295Z,-3.13
2023-01-19T22:31:32.632Z,-3.12
2023-01-19T22:34:59.723Z,-3.10
2023-01-19T22:38:27.252Z,-3.11
2023-01-19T22:41:54.191Z,-3.12
2023-01-19T22:45:21.938Z,-3.12
2023-01-19T22:48:49.674Z,-3.13
2023-01-19T22:52:16.706Z,-3.11
2023-01-19T22:55:43.638Z,-3.11
2023-01-19T22:59:10.915Z,-3.14
2023-01-19T23:02:37.944Z,-3.15
2023-01-19T23:06:08.041Z,-3.18
2023-01-19T23:09:35.606Z,-3.19
2023-01-19T23:13:02.532Z,-3.18
2023-01-19T23:16:29.595Z,-3.18
2023-01-19T23:19:56.617Z,-3.19
2023-01-19T23:23:23.881Z,-3.20
2023-01-19T23:26:52.156Z,-3.22
2023-01-19T23:30:20.423Z,-3.24
2023-01-19T23:33:47.572Z,-3.26
2023-01-19T23:37:15.729Z,-3.29
2023-01-19T23:40:42.801Z,-3.31
2023-01-19T23:44:09.906Z,-3.34
2023-01-19T23:47:37.847Z,-3.36
2023-01-19T23:51:10.298Z,-3.39
2023-01-19T23:54:37.674Z,-3.41
2023-01-19T23:58:04.603Z,-3.42
